Time;durP1;ratioP1;P1;durP2;ratioP2;P2;SDS_P1;SDS_P2;PMS_P1;PMS_P2;Temp;Humidity;BMP_temperature;BMP_pressure;BME280_temperature;BME280_humidity;BME280_pressure;Samples;Min_cycle;Max_cycle;Signal;HPM_P1;HPM_P2
2022/07/23 00:06:42;;;;;;;7.05;1.33;;;;;;;17.41;84.74;101664.16;20848660;28;20125;-59
2022/07/23 00:17:03;;;;;;;9.77;1.20;;;;;;;17.42;83.21;101665.03;20824699;28;20521;-59
2022/07/23 00:27:25;;;;;;;3.47;1.10;;;;;;;17.34;83.73;101680.59;20821581;28;20049;-59
2022/07/23 00:37:47;;;;;;;5.15;1.20;;;;;;;17.44;84.97;101676.28;20835356;28;20045;-59
2022/07/23 00:48:09;;;;;;;6.72;1.75;;;;;;;17.16;89.79;101649.56;20829285;28;20041;-59
2022/07/23 00:58:32;;;;;;;9.70;1.50;;;;;;;17.20;87.27;101665.00;20815229;28;20402;-59
2022/07/23 01:08:54;;;;;;;4.55;1.42;;;;;;;17.23;90.80;101653.41;20831446;28;20050;-59
2022/07/23 01:19:17;;;;;;;3.72;1.48;;;;;;;16.82;91.55;101646.06;20834086;28;20048;-59
2022/07/23 01:29:39;;;;;;;7.82;1.45;;;;;;;16.87;92.83;101650.97;20829737;28;20491;-59
2022/07/23 01:40:00;;;;;;;2.90;1.40;;;;;;;16.92;89.25;101633.88;20836432;28;20045;-59
2022/07/23 01:50:23;;;;;;;6.22;1.63;;;;;;;16.94;90.66;101647.75;20832137;28;20045;-60
2022/07/23 02:00:45;;;;;;;2.92;1.70;;;;;;;16.83;93.96;101628.47;20855800;28;20399;-60
2022/07/23 02:11:07;;;;;;;4.47;1.48;;;;;;;16.61;94.43;101613.50;20855603;28;20045;-60
2022/07/23 02:21:28;;;;;;;3.75;1.70;;;;;;;16.49;94.60;101605.72;20842953;28;20030;-59
2022/07/23 02:31:50;;;;;;;4.03;1.83;;;;;;;16.39;96.67;101603.91;20844883;28;20057;-60
2022/07/23 02:42:12;;;;;;;4.15;1.92;;;;;;;16.26;91.29;101600.47;20844779;28;20096;-60
2022/07/23 02:52:33;;;;;;;4.63;2.10;;;;;;;15.98;95.06;101599.06;20848842;28;20045;-59
2022/07/23 03:02:55;;;;;;;5.45;2.47;;;;;;;15.75;98.06;101605.22;20844958;28;20047;-60
2022/07/23 03:13:17;;;;;;;;;;;;;;;15.91;97.08;101597.00;20850357;28;20351;-60
2022/07/23 03:23:38;;;;;;;3.03;2.50;;;;;;;16.00;93.51;101598.97;20842949;28;20381;-59
2022/07/23 03:34:01;;;;;;;7.63;2.80;;;;;;;15.95;96.08;101601.94;20840721;28;20049;-59
2022/07/23 03:44:22;;;;;;;7.45;2.80;;;;;;;15.82;94.65;101605.59;20841509;28;20053;-59
2022/07/23 03:54:44;;;;;;;8.32;2.90;;;;;;;15.84;96.90;101606.31;20851398;28;20059;-59
2022/07/23 04:05:06;;;;;;;;;;;;;;;15.69;98.53;101604.81;20843206;28;20387;-60
2022/07/23 04:15:28;;;;;;;6.68;2.80;;;;;;;15.74;94.24;101607.94;20846967;28;20000;-60
2022/07/23 04:25:49;;;;;;;;;;;;;;;15.86;97.29;101601.78;20846584;28;20040;-59
2022/07/23 04:36:11;;;;;;;5.10;3.15;;;;;;;15.44;98.05;101595.25;20845036;28;19921;-60
2022/07/23 04:46:32;;;;;;;5.63;3.58;;;;;;;15.31;100.00;101613.78;20843409;28;20491;-60
2022/07/23 04:56:55;;;;;;;8.52;3.88;;;;;;;15.57;98.82;101616.22;20838605;28;20100;-60
2022/07/23 05:07:16;;;;;;;;;;;;;;;15.56;99.62;101625.06;20829052;28;20039;-60
2022/07/23 05:17:37;;;;;;;6.67;4.07;;;;;;;15.70;98.93;101611.75;20834298;28;19928;-60
2022/07/23 05:27:59;;;;;;;7.18;3.88;;;;;;;15.71;97.60;101618.69;20838626;28;20486;-61
2022/07/23 05:38:20;;;;;;;;;;;;;;;16.22;96.77;101625.34;20844846;28;20040;-60
2022/07/23 05:48:42;;;;;;;;;;;;;;;16.28;95.23;101635.41;20850726;28;19925;-59
2022/07/23 05:59:04;;;;;;;8.10;2.70;;;;;;;16.63;91.28;101643.16;20839406;28;19979;-61
2022/07/23 06:09:26;;;;;;;;;;;;;;;17.05;88.06;101650.38;20830709;28;20136;-61
2022/07/23 06:19:47;;;;;;;;;;;;;;;17.11;86.91;101655.19;20821409;28;19925;-61
2022/07/23 06:30:10;;;;;;;;;;;;;;;17.24;86.48;101673.53;20840486;28;20054;-60
2022/07/23 06:40:31;;;;;;;;;;;;;;;17.31;84.60;101683.50;20862594;28;19920;-61
2022/07/23 06:50:52;;;;;;;;;;;;;;;17.26;86.91;101679.47;20828290;28;19921;-60
2022/07/23 07:01:14;;;;;;;;;;;;;;;17.41;84.66;101685.25;20833626;28;19921;-60
2022/07/23 07:11:35;;;;;;;;;;;;;;;17.07;86.81;101690.63;20846822;28;20717;-61
2022/07/23 07:21:57;;;;;;;;;;;;;;;16.68;91.52;101698.97;20839031;28;20440;-62
2022/07/23 07:32:18;;;;;;;;;;;;;;;16.65;94.52;101709.72;20845774;28;19921;-60
2022/07/23 07:43:01;;;;;;;;;;;;;;;16.60;94.92;101700.50;20835843;28;20502;-60
2022/07/23 07:53:23;;;;;;;;;;;;;;;16.68;91.65;101720.03;20841305;28;20473;-61
2022/07/23 08:03:46;;;;;;;;;;;;;;;16.91;89.41;101721.75;20839649;28;19925;-60
2022/07/23 08:14:09;;;;;;;;;;;;;;;17.16;87.94;101736.50;20835774;28;20020;-61
2022/07/23 08:24:30;;;;;;;;;;;;;;;17.36;84.99;101739.31;20840324;28;20004;-60
2022/07/23 08:34:52;;;;;;;;;;;;;;;17.60;82.79;101738.22;20833161;28;20393;-60
2022/07/23 08:45:15;;;;;;;;;;;;;;;18.09;78.05;101728.06;20832057;28;19925;-60
2022/07/23 08:55:37;;;;;;;3.50;0.80;;;;;;;18.42;76.19;101727.97;20833431;28;19921;-60
2022/07/23 09:06:01;;;;;;;1.60;0.50;;;;;;;18.46;73.05;101727.59;20845420;28;20041;-61
2022/07/23 09:16:31;;;;;;;1.60;0.40;;;;;;;18.96;70.88;101720.72;20845400;28;20041;-60
2022/07/23 09:26:53;;;;;;;1.90;0.50;;;;;;;18.72;70.60;101720.97;20853081;28;20053;-61
2022/07/23 09:37:17;;;;;;;1.65;0.50;;;;;;;19.28;70.37;101732.88;20846148;28;20050;-61
2022/07/23 09:47:39;;;;;;;0.88;0.60;;;;;;;19.28;74.79;101724.94;20839865;28;20420;-62
2022/07/23 09:58:01;;;;;;;1.70;0.43;;;;;;;19.87;69.08;101739.06;20839901;28;20041;-61
2022/07/23 10:08:23;;;;;;;2.15;0.40;;;;;;;20.19;67.44;101734.41;20847123;28;20045;-61
2022/07/23 10:18:47;;;;;;;1.38;0.43;;;;;;;20.00;66.63;101750.28;20843180;28;20386;-62
2022/07/23 10:29:13;;;;;;;0.40;0.40;;;;;;;19.92;66.47;101750.91;20843938;28;20045;-61
2022/07/23 10:39:35;;;;;;;0.70;0.30;;;;;;;20.17;61.60;101742.47;20850298;28;20128;-60
2022/07/23 10:50:30;;;;;;;0.70;0.40;;;;;;;20.52;61.50;101743.63;20841655;28;20660;-60
2022/07/23 11:00:52;;;;;;;1.08;0.50;;;;;;;21.25;60.68;101748.28;20839598;28;20413;-59
2022/07/23 11:11:13;;;;;;;1.05;0.40;;;;;;;21.43;58.92;101742.06;20841536;28;20049;-60
2022/07/23 11:21:38;;;;;;;1.95;0.20;;;;;;;20.56;61.48;101745.00;20843657;28;20053;-61
2022/07/23 11:32:05;;;;;;;1.73;0.50;;;;;;;20.48;58.28;101757.28;20843496;28;20046;-61
2022/07/23 11:42:27;;;;;;;0.75;0.30;;;;;;;21.89;54.45;101760.59;20838001;28;20034;-61
2022/07/23 11:52:53;;;;;;;1.25;0.40;;;;;;;21.58;53.39;101740.63;20843944;28;20557;-60
2022/07/23 12:03:15;;;;;;;2.13;0.50;;;;;;;20.87;55.43;101753.69;20840649;28;20049;-61
2022/07/23 12:13:37;;;;;;;1.33;0.40;;;;;;;21.25;56.10;101756.22;20842907;28;20045;-61
2022/07/23 12:24:07;;;;;;;2.08;0.50;;;;;;;21.15;55.46;101753.59;20833205;28;20041;-60
2022/07/23 12:34:28;;;;;;;0.43;0.37;;;;;;;21.36;55.50;101752.41;20837825;28;20052;-61
2022/07/23 12:45:11;;;;;;;0.30;0.30;;;;;;;21.18;54.15;101766.59;20843299;28;20648;-60
2022/07/23 12:55:33;;;;;;;2.33;0.40;;;;;;;21.16;56.06;101760.59;20834487;28;20049;-61
2022/07/23 13:06:15;;;;;;;1.30;0.43;;;;;;;21.20;56.92;101774.38;20838768;28;20506;-61
2022/07/23 13:16:37;;;;;;;2.72;0.70;;;;;;;21.51;56.42;101776.69;20844228;28;20052;-60
2022/07/23 13:27:00;;;;;;;2.28;0.40;;;;;;;21.19;57.62;101776.22;20862971;28;20486;-60
2022/07/23 13:37:21;;;;;;;1.65;0.47;;;;;;;21.30;54.53;101784.00;20840435;28;20498;-61
2022/07/23 13:47:45;;;;;;;0.85;0.40;;;;;;;21.79;55.23;101779.22;20841963;28;20482;-59
2022/07/23 13:58:08;;;;;;;0.65;0.40;;;;;;;21.76;56.32;101770.72;20850606;28;20479;-61
2022/07/23 14:08:30;;;;;;;8.00;0.75;;;;;;;21.69;55.83;101785.56;20839472;28;20057;-62
2022/07/23 14:18:53;;;;;;;1.23;0.70;;;;;;;21.35;56.23;101784.41;20838129;28;20525;-61
2022/07/23 14:29:14;;;;;;;0.73;0.50;;;;;;;21.75;55.23;101784.97;20829548;28;20072;-62
2022/07/23 14:39:38;;;;;;;1.15;0.50;;;;;;;21.68;54.25;101784.72;20825484;28;20053;-62
2022/07/23 14:49:59;;;;;;;2.28;0.57;;;;;;;21.95;55.05;101786.56;20836930;28;20757;-63
2022/07/23 15:00:21;;;;;;;1.08;0.40;;;;;;;21.67;53.80;101787.53;20814852;28;20137;-60
2022/07/23 15:10:44;;;;;;;3.35;1.00;;;;;;;21.99;55.39;101777.28;20825602;28;20058;-61
2022/07/23 15:21:06;;;;;;;1.40;0.70;;;;;;;22.01;56.04;101791.25;20811361;28;20057;-59
2022/07/23 15:31:29;;;;;;;2.40;0.60;;;;;;;21.78;56.74;101771.41;20824875;28;20402;-61
2022/07/23 15:41:51;;;;;;;3.60;0.70;;;;;;;21.95;57.65;101773.28;20816615;28;20168;-62
2022/07/23 15:52:12;;;;;;;1.83;0.80;;;;;;;21.89;58.53;101777.38;20831958;28;20060;-62
2022/07/23 16:02:34;;;;;;;1.67;0.80;;;;;;;22.13;55.42;101780.28;20813136;28;20044;-61
2022/07/23 16:12:56;;;;;;;1.73;0.88;;;;;;;22.79;55.79;101778.97;20824777;28;20061;-62
2022/07/23 16:23:18;;;;;;;2.50;0.80;;;;;;;22.45;57.57;101778.81;20813247;28;20387;-63
2022/07/23 16:33:40;;;;;;;1.35;0.73;;;;;;;22.79;53.28;101779.81;20810446;28;20045;-63
2022/07/23 16:44:01;;;;;;;0.80;0.60;;;;;;;24.22;50.81;101778.97;20802855;28;20707;-63
2022/07/23 16:54:24;;;;;;;1.00;0.70;;;;;;;23.53;53.63;101797.00;20791442;28;20045;-63
2022/07/23 17:04:46;;;;;;;0.70;0.65;;;;;;;23.08;54.43;101785.72;20810911;28;20045;-62
2022/07/23 17:15:08;;;;;;;1.08;0.60;;;;;;;23.04;53.84;101802.94;20815456;28;20147;-62
2022/07/23 17:25:29;;;;;;;;;;;;;;;23.18;54.91;101801.59;20830520;28;20042;-62
2022/07/23 17:35:52;;;;;;;;;;;;;;;22.83;55.72;101793.63;20827791;28;19925;-62
2022/07/23 17:46:14;;;;;;;1.15;0.73;;;;;;;22.27;56.55;101797.56;20822503;28;19931;-62
2022/07/23 17:56:36;;;;;;;4.25;0.90;;;;;;;22.08;57.78;101793.19;20820982;28;20525;-62
2022/07/23 18:06:57;;;;;;;0.95;0.68;;;;;;;21.56;58.91;101790.34;20829560;28;20072;-62
2022/07/23 18:17:19;;;;;;;1.75;1.00;;;;;;;21.76;61.96;101797.28;20839774;28;20056;-61
2022/07/23 18:27:41;;;;;;;3.55;0.90;;;;;;;21.39;60.99;101796.41;20822506;28;20049;-62
2022/07/23 18:38:08;;;;;;;2.08;0.95;;;;;;;21.27;62.84;101807.34;20839552;28;20041;-61
2022/07/23 18:48:30;;;;;;;1.55;0.90;;;;;;;21.00;64.03;101802.78;20843803;28;20049;-59
2022/07/23 18:58:52;;;;;;;2.08;0.95;;;;;;;20.93;63.40;101811.44;20835302;28;20045;-59
2022/07/23 19:09:14;;;;;;;0.90;0.70;;;;;;;20.53;65.43;101819.47;20845313;28;20058;-59
2022/07/23 19:19:36;;;;;;;1.70;0.90;;;;;;;20.42;66.44;101827.56;20840544;28;20053;-59
2022/07/23 19:29:58;;;;;;;0.50;0.50;;;;;;;20.29;65.99;101825.31;20843384;28;20147;-59
2022/07/23 19:40:20;;;;;;;1.55;0.77;;;;;;;19.87;66.99;101844.94;20851973;28;20049;-59
2022/07/23 19:50:41;;;;;;;1.75;0.70;;;;;;;19.65;68.26;101845.09;20840703;28;20145;-59
2022/07/23 20:01:03;;;;;;;1.75;0.65;;;;;;;19.31;69.75;101851.63;20841023;28;20053;-59
2022/07/23 20:11:25;;;;;;;2.72;0.63;;;;;;;19.29;70.69;101856.19;20850620;28;20069;-60
2022/07/23 20:21:50;;;;;;;3.00;0.85;;;;;;;19.07;70.22;101858.09;20842260;28;20051;-60
2022/07/23 20:32:12;;;;;;;2.97;1.10;;;;;;;18.99;72.40;101856.06;20839247;28;20049;-59
2022/07/23 20:42:36;;;;;;;3.25;1.00;;;;;;;18.78;71.68;101851.72;20841120;28;20080;-59
2022/07/23 20:52:58;;;;;;;3.10;1.10;;;;;;;18.54;72.39;101849.28;20837148;28;20140;-59
2022/07/23 21:03:20;;;;;;;4.05;1.08;;;;;;;18.54;73.24;101859.84;20859867;28;20045;-60
2022/07/23 21:13:41;;;;;;;3.38;1.00;;;;;;;18.35;74.78;101852.69;20837166;28;20045;-59
2022/07/23 21:24:03;;;;;;;2.85;1.25;;;;;;;18.36;75.04;101862.28;20844365;28;20047;-59
2022/07/23 21:34:25;;;;;;;2.63;1.10;;;;;;;18.15;76.04;101850.78;20850618;28;20041;-60
2022/07/23 21:44:47;;;;;;;1.90;1.17;;;;;;;18.03;76.56;101857.03;20859690;28;20049;-60
2022/07/23 21:55:09;;;;;;;1.52;1.20;;;;;;;17.86;78.55;101855.72;20852483;28;20475;-60
2022/07/23 22:05:31;;;;;;;4.10;1.70;;;;;;;17.79;79.16;101848.41;20855581;28;20049;-60
2022/07/23 22:15:53;;;;;;;6.15;1.98;;;;;;;17.72;79.90;101853.31;20852212;28;20064;-60
2022/07/23 22:26:16;;;;;;;4.07;1.88;;;;;;;17.35;81.69;101848.34;20858954;28;20516;-60
2022/07/23 22:36:37;;;;;;;1.92;1.60;;;;;;;17.44;81.40;101837.94;20851699;28;20054;-60
2022/07/23 22:46:59;;;;;;;3.25;2.08;;;;;;;17.41;81.63;101845.25;20853582;28;20048;-59
2022/07/23 22:57:20;;;;;;;3.38;2.10;;;;;;;17.33;82.41;101833.63;20856402;28;20498;-60
2022/07/23 23:07:42;;;;;;;5.40;2.00;;;;;;;17.33;81.93;101834.44;20844618;28;20044;-60
2022/07/23 23:18:03;;;;;;;4.07;2.38;;;;;;;17.18;82.83;101832.13;20833171;28;20038;-60
2022/07/23 23:28:25;;;;;;;7.35;2.13;;;;;;;17.10;83.05;101832.69;20847573;28;20033;-60
2022/07/23 23:38:48;;;;;;;2.60;2.22;;;;;;;16.80;84.94;101813.09;20841118;28;20041;-60
2022/07/23 23:49:10;;;;;;;4.63;2.35;;;;;;;17.04;83.20;101814.69;20849566;28;20363;-60
2022/07/23 23:59:31;;;;;;;4.53;2.08;;;;;;;16.90;84.03;101811.44;20846764;28;20144;-60
